sensor_id;sensor_type;location;lat;lon;timestamp;temperature;humidity
63537;DHT22;49686;51.880;5.632;2022-12-18T00:01:15;-7.40;99.90
63537;DHT22;49686;51.880;5.632;2022-12-18T00:03:42;-7.40;99.90
63537;DHT22;49686;51.880;5.632;2022-12-18T00:06:09;-7.40;99.90
63537;DHT22;49686;51.880;5.632;2022-12-18T00:08:37;-7.40;99.90
63537;DHT22;49686;51.880;5.632;2022-12-18T00:11:05;-7.30;99.90
63537;DHT22;49686;51.880;5.632;2022-12-18T00:13:33;-7.30;99.90
63537;DHT22;49686;51.880;5.632;2022-12-18T00:16:01;-7.40;99.90
63537;DHT22;49686;51.880;5.632;2022-12-18T00:18:29;-7.60;99.90
63537;DHT22;49686;51.880;5.632;2022-12-18T00:20:58;-7.60;99.90
63537;DHT22;49686;51.880;5.632;2022-12-18T00:23:25;-7.60;99.90
63537;DHT22;49686;51.880;5.632;2022-12-18T00:25:58;-7.60;99.90
63537;DHT22;49686;51.880;5.632;2022-12-18T00:28:25;-7.60;99.90
63537;DHT22;49686;51.880;5.632;2022-12-18T00:30:59;-7.50;99.90
63537;DHT22;49686;51.880;5.632;2022-12-18T00:33:26;-7.60;99.90
63537;DHT22;49686;51.880;5.632;2022-12-18T00:36:03;-7.60;99.90
63537;DHT22;49686;51.880;5.632;2022-12-18T00:38:30;-7.70;99.90
63537;DHT22;49686;51.880;5.632;2022-12-18T00:40:58;-7.60;99.90
63537;DHT22;49686;51.880;5.632;2022-12-18T00:43:25;-7.70;99.90
63537;DHT22;49686;51.880;5.632;2022-12-18T00:45:51;-7.60;99.90
63537;DHT22;49686;51.880;5.632;2022-12-18T00:48:20;-7.60;99.90
63537;DHT22;49686;51.880;5.632;2022-12-18T00:50:47;-7.60;99.90
63537;DHT22;49686;51.880;5.632;2022-12-18T00:53:14;-7.80;99.90
63537;DHT22;49686;51.880;5.632;2022-12-18T00:55:45;-7.70;99.90
63537;DHT22;49686;51.880;5.632;2022-12-18T00:58:15;-7.80;99.90
63537;DHT22;49686;51.880;5.632;2022-12-18T01:00:42;-7.70;99.90
63537;DHT22;49686;51.880;5.632;2022-12-18T01:03:09;-7.70;99.90
63537;DHT22;49686;51.880;5.632;2022-12-18T01:05:41;-7.80;99.90
63537;DHT22;49686;51.880;5.632;2022-12-18T01:08:08;-7.90;99.90
63537;DHT22;49686;51.880;5.632;2022-12-18T01:10:35;-7.90;99.90
63537;DHT22;49686;51.880;5.632;2022-12-18T01:13:02;-7.80;99.90
63537;DHT22;49686;51.880;5.632;2022-12-18T01:15:32;-7.80;99.90
63537;DHT22;49686;51.880;5.632;2022-12-18T01:17:59;-8.00;99.90
63537;DHT22;49686;51.880;5.632;2022-12-18T01:20:26;-8.00;99.90
63537;DHT22;49686;51.880;5.632;2022-12-18T01:22:55;-7.90;99.90
63537;DHT22;49686;51.880;5.632;2022-12-18T01:25:22;-7.90;99.90
63537;DHT22;49686;51.880;5.632;2022-12-18T01:27:48;-7.90;99.90
63537;DHT22;49686;51.880;5.632;2022-12-18T01:30:15;-8.00;99.90
63537;DHT22;49686;51.880;5.632;2022-12-18T01:32:43;-8.10;99.90
63537;DHT22;49686;51.880;5.632;2022-12-18T01:35:10;-8.10;99.90
63537;DHT22;49686;51.880;5.632;2022-12-18T01:37:37;-8.10;99.90
63537;DHT22;49686;51.880;5.632;2022-12-18T01:40:04;-8.20;99.90
63537;DHT22;49686;51.880;5.632;2022-12-18T01:42:31;-8.20;99.90
63537;DHT22;49686;51.880;5.632;2022-12-18T01:45:02;-8.30;99.90
63537;DHT22;49686;51.880;5.632;2022-12-18T01:47:33;-8.20;99.90
63537;DHT22;49686;51.880;5.632;2022-12-18T01:50:09;-8.20;99.90
63537;DHT22;49686;51.880;5.632;2022-12-18T01:52:37;-8.20;99.90
63537;DHT22;49686;51.880;5.632;2022-12-18T01:55:06;-8.20;99.90
63537;DHT22;49686;51.880;5.632;2022-12-18T01:57:33;-8.30;99.90
63537;DHT22;49686;51.880;5.632;2022-12-18T02:00:04;-8.20;99.90
63537;DHT22;49686;51.880;5.632;2022-12-18T02:02:32;-8.20;99.90
63537;DHT22;49686;51.880;5.632;2022-12-18T02:05:07;-8.10;99.90
63537;DHT22;49686;51.880;5.632;2022-12-18T02:07:40;-8.10;99.90
63537;DHT22;49686;51.880;5.632;2022-12-18T02:10:14;-8.10;99.90
63537;DHT22;49686;51.880;5.632;2022-12-18T02:12:49;-8.10;99.90
63537;DHT22;49686;51.880;5.632;2022-12-18T02:15:29;-8.00;99.90
63537;DHT22;49686;51.880;5.632;2022-12-18T02:18:07;-8.00;99.90
63537;DHT22;49686;51.880;5.632;2022-12-18T02:20:41;-8.00;99.90
63537;DHT22;49686;51.880;5.632;2022-12-18T02:23:23;-8.10;99.90
63537;DHT22;49686;51.880;5.632;2022-12-18T02:26:07;-8.00;99.90
63537;DHT22;49686;51.880;5.632;2022-12-18T02:28:41;-8.10;99.90
63537;DHT22;49686;51.880;5.632;2022-12-18T02:31:13;-8.00;99.90
63537;DHT22;49686;51.880;5.632;2022-12-18T02:33:41;-8.00;99.90
63537;DHT22;49686;51.880;5.632;2022-12-18T02:36:09;-8.10;99.90
63537;DHT22;49686;51.880;5.632;2022-12-18T02:38:37;-8.20;99.90
63537;DHT22;49686;51.880;5.632;2022-12-18T02:41:06;-8.30;99.90
63537;DHT22;49686;51.880;5.632;2022-12-18T02:43:33;-8.30;99.90
63537;DHT22;49686;51.880;5.632;2022-12-18T02:46:24;-8.20;99.90
63537;DHT22;49686;51.880;5.632;2022-12-18T02:48:54;-8.30;99.90
63537;DHT22;49686;51.880;5.632;2022-12-18T02:51:25;-8.30;99.90
63537;DHT22;49686;51.880;5.632;2022-12-18T02:54:00;-8.30;99.90
63537;DHT22;49686;51.880;5.632;2022-12-18T02:56:38;-8.40;99.90
63537;DHT22;49686;51.880;5.632;2022-12-18T02:59:09;-8.50;99.90
63537;DHT22;49686;51.880;5.632;2022-12-18T03:01:42;-8.50;99.90
63537;DHT22;49686;51.880;5.632;2022-12-18T03:04:14;-8.60;99.90
63537;DHT22;49686;51.880;5.632;2022-12-18T03:06:47;-8.40;99.90
63537;DHT22;49686;51.880;5.632;2022-12-18T03:09:20;-8.50;99.90
63537;DHT22;49686;51.880;5.632;2022-12-18T03:11:53;-8.40;99.90
63537;DHT22;49686;51.880;5.632;2022-12-18T03:14:21;-8.40;99.90
63537;DHT22;49686;51.880;5.632;2022-12-18T03:16:53;-8.40;99.90
63537;DHT22;49686;51.880;5.632;2022-12-18T03:19:25;-8.40;99.90
63537;DHT22;49686;51.880;5.632;2022-12-18T03:21:55;-8.40;99.90
63537;DHT22;49686;51.880;5.632;2022-12-18T03:24:24;-8.40;99.90
63537;DHT22;49686;51.880;5.632;2022-12-18T03:26:56;-8.30;99.90
63537;DHT22;49686;51.880;5.632;2022-12-18T03:29:26;-8.30;99.90
63537;DHT22;49686;51.880;5.632;2022-12-18T03:31:55;-8.20;99.90
63537;DHT22;49686;51.880;5.632;2022-12-18T03:34:26;-8.40;99.90
63537;DHT22;49686;51.880;5.632;2022-12-18T03:36:58;-8.50;99.90
63537;DHT22;49686;51.880;5.632;2022-12-18T03:39:30;-8.30;99.90
63537;DHT22;49686;51.880;5.632;2022-12-18T03:42:04;-8.40;99.90
63537;DHT22;49686;51.880;5.632;2022-12-18T03:44:36;-8.30;99.90
63537;DHT22;49686;51.880;5.632;2022-12-18T03:47:15;-8.30;99.90
63537;DHT22;49686;51.880;5.632;2022-12-18T03:49:47;-8.40;99.90
63537;DHT22;49686;51.880;5.632;2022-12-18T03:52:20;-8.60;99.90
63537;DHT22;49686;51.880;5.632;2022-12-18T03:54:47;-8.60;99.90
63537;DHT22;49686;51.880;5.632;2022-12-18T03:57:19;-8.50;99.90
63537;DHT22;49686;51.880;5.632;2022-12-18T03:59:50;-8.50;99.90
63537;DHT22;49686;51.880;5.632;2022-12-18T04:02:18;-8.50;99.90
63537;DHT22;49686;51.880;5.632;2022-12-18T04:04:52;-8.50;99.90
63537;DHT22;49686;51.880;5.632;2022-12-18T04:07:20;-8.50;99.90
63537;DHT22;49686;51.880;5.632;2022-12-18T04:09:48;-8.40;99.90
63537;DHT22;49686;51.880;5.632;2022-12-18T04:12:19;-8.40;99.90
63537;DHT22;49686;51.880;5.632;2022-12-18T04:14:46;-8.40;99.90
63537;DHT22;49686;51.880;5.632;2022-12-18T04:17:13;-8.40;99.90
63537;DHT22;49686;51.880;5.632;2022-12-18T04:19:40;-8.50;99.90
63537;DHT22;49686;51.880;5.632;2022-12-18T04:22:08;-8.50;99.90
63537;DHT22;49686;51.880;5.632;2022-12-18T04:24:35;-8.50;99.90
63537;DHT22;49686;51.880;5.632;2022-12-18T04:27:06;-8.50;99.90
63537;DHT22;49686;51.880;5.632;2022-12-18T04:29:34;-8.40;99.90
63537;DHT22;49686;51.880;5.632;2022-12-18T04:32:00;-8.40;99.90
63537;DHT22;49686;51.880;5.632;2022-12-18T04:34:28;-8.40;99.90
63537;DHT22;49686;51.880;5.632;2022-12-18T04:36:55;-8.50;99.90
63537;DHT22;49686;51.880;5.632;2022-12-18T04:39:22;-8.50;99.90
63537;DHT22;49686;51.880;5.632;2022-12-18T04:41:50;-8.30;99.90
63537;DHT22;49686;51.880;5.632;2022-12-18T04:44:17;-8.30;99.90
63537;DHT22;49686;51.880;5.632;2022-12-18T04:46:45;-8.50;99.90
63537;DHT22;49686;51.880;5.632;2022-12-18T04:49:12;-8.50;99.90
63537;DHT22;49686;51.880;5.632;2022-12-18T04:51:40;-8.50;99.90
63537;DHT22;49686;51.880;5.632;2022-12-18T04:54:07;-8.50;99.90
63537;DHT22;49686;51.880;5.632;2022-12-18T04:56:34;-8.30;99.90
63537;DHT22;49686;51.880;5.632;2022-12-18T04:59:03;-8.50;99.90
63537;DHT22;49686;51.880;5.632;2022-12-18T05:01:30;-8.70;99.90
63537;DHT22;49686;51.880;5.632;2022-12-18T05:04:02;-8.70;99.90
63537;DHT22;49686;51.880;5.632;2022-12-18T05:06:29;-8.70;99.90
63537;DHT22;49686;51.880;5.632;2022-12-18T05:08:56;-8.70;99.90
63537;DHT22;49686;51.880;5.632;2022-12-18T05:11:27;-8.70;99.90
63537;DHT22;49686;51.880;5.632;2022-12-18T05:13:53;-8.80;99.90
63537;DHT22;49686;51.880;5.632;2022-12-18T05:16:20;-8.70;99.90
63537;DHT22;49686;51.880;5.632;2022-12-18T05:18:49;-8.70;99.90
63537;DHT22;49686;51.880;5.632;2022-12-18T05:21:18;-8.70;99.90
63537;DHT22;49686;51.880;5.632;2022-12-18T05:23:47;-8.70;99.90
63537;DHT22;49686;51.880;5.632;2022-12-18T05:26:16;-8.60;99.90
63537;DHT22;49686;51.880;5.632;2022-12-18T05:28:43;-8.70;99.90
63537;DHT22;49686;51.880;5.632;2022-12-18T05:31:10;-8.70;99.90
63537;DHT22;49686;51.880;5.632;2022-12-18T05:33:37;-8.80;99.90
63537;DHT22;49686;51.880;5.632;2022-12-18T05:36:06;-8.80;99.90
63537;DHT22;49686;51.880;5.632;2022-12-18T05:38:36;-8.80;99.90
63537;DHT22;49686;51.880;5.632;2022-12-18T05:41:04;-8.60;99.90
63537;DHT22;49686;51.880;5.632;2022-12-18T05:43:33;-8.50;99.90
63537;DHT22;49686;51.880;5.632;2022-12-18T05:46:07;-8.40;99.90
63537;DHT22;49686;51.880;5.632;2022-12-18T05:48:35;-8.40;99.90
63537;DHT22;49686;51.880;5.632;2022-12-18T05:51:09;-8.40;99.90
63537;DHT22;49686;51.880;5.632;2022-12-18T05:53:38;-8.30;99.90
63537;DHT22;49686;51.880;5.632;2022-12-18T05:56:08;-8.30;99.90
63537;DHT22;49686;51.880;5.632;2022-12-18T05:58:35;-8.30;99.90
63537;DHT22;49686;51.880;5.632;2022-12-18T06:01:08;-8.20;99.90
63537;DHT22;49686;51.880;5.632;2022-12-18T06:03:35;-8.10;99.90
63537;DHT22;49686;51.880;5.632;2022-12-18T06:06:02;-8.00;99.90
63537;DHT22;49686;51.880;5.632;2022-12-18T06:08:29;-8.00;99.90
63537;DHT22;49686;51.880;5.632;2022-12-18T06:10:57;-7.90;99.90
63537;DHT22;49686;51.880;5.632;2022-12-18T06:13:24;-8.00;99.90
63537;DHT22;49686;51.880;5.632;2022-12-18T06:15:51;-7.90;99.90
63537;DHT22;49686;51.880;5.632;2022-12-18T06:18:20;-8.00;99.90
63537;DHT22;49686;51.880;5.632;2022-12-18T06:20:55;-8.00;99.90
63537;DHT22;49686;51.880;5.632;2022-12-18T06:23:22;-8.00;99.90
63537;DHT22;49686;51.880;5.632;2022-12-18T06:25:49;-7.90;99.90
63537;DHT22;49686;51.880;5.632;2022-12-18T06:28:20;-7.90;99.90
63537;DHT22;49686;51.880;5.632;2022-12-18T06:30:49;-7.90;99.90
63537;DHT22;49686;51.880;5.632;2022-12-18T06:33:16;-7.80;99.90
63537;DHT22;49686;51.880;5.632;2022-12-18T06:35:43;-7.80;99.90
63537;DHT22;49686;51.880;5.632;2022-12-18T06:38:10;-7.90;99.90
63537;DHT22;49686;51.880;5.632;2022-12-18T06:40:37;-8.00;99.90
63537;DHT22;49686;51.880;5.632;2022-12-18T06:43:04;-8.00;99.90
63537;DHT22;49686;51.880;5.632;2022-12-18T06:45:32;-8.00;99.90
63537;DHT22;49686;51.880;5.632;2022-12-18T06:47:59;-8.10;99.90
63537;DHT22;49686;51.880;5.632;2022-12-18T06:50:26;-8.20;99.90
63537;DHT22;49686;51.880;5.632;2022-12-18T06:52:52;-8.20;99.90
63537;DHT22;49686;51.880;5.632;2022-12-18T06:55:22;-8.40;99.90
63537;DHT22;49686;51.880;5.632;2022-12-18T06:57:52;-8.50;99.90
63537;DHT22;49686;51.880;5.632;2022-12-18T07:00:21;-8.60;99.90
63537;DHT22;49686;51.880;5.632;2022-12-18T07:02:49;-8.60;99.90
63537;DHT22;49686;51.880;5.632;2022-12-18T07:05:18;-8.70;99.90
63537;DHT22;49686;51.880;5.632;2022-12-18T07:07:45;-8.60;99.90
63537;DHT22;49686;51.880;5.632;2022-12-18T07:10:12;-8.50;99.90
63537;DHT22;49686;51.880;5.632;2022-12-18T07:12:38;-8.60;99.90
63537;DHT22;49686;51.880;5.632;2022-12-18T07:15:11;-8.50;99.90
63537;DHT22;49686;51.880;5.632;2022-12-18T07:17:38;-8.60;99.90
63537;DHT22;49686;51.880;5.632;2022-12-18T07:20:07;-8.70;99.90
63537;DHT22;49686;51.880;5.632;2022-12-18T07:22:34;-8.60;99.90
63537;DHT22;49686;51.880;5.632;2022-12-18T07:25:01;-8.40;99.90
63537;DHT22;49686;51.880;5.632;2022-12-18T07:27:28;-8.20;99.90
63537;DHT22;49686;51.880;5.632;2022-12-18T07:29:57;-8.00;99.90
63537;DHT22;49686;51.880;5.632;2022-12-18T07:32:23;-8.00;99.90
63537;DHT22;49686;51.880;5.632;2022-12-18T07:34:50;-7.90;99.90
63537;DHT22;49686;51.880;5.632;2022-12-18T07:37:18;-7.90;99.90
63537;DHT22;49686;51.880;5.632;2022-12-18T07:39:45;-7.70;99.90
63537;DHT22;49686;51.880;5.632;2022-12-18T07:42:15;-7.60;99.90
63537;DHT22;49686;51.880;5.632;2022-12-18T07:44:42;-7.60;99.90
63537;DHT22;49686;51.880;5.632;2022-12-18T07:47:09;-7.60;99.90
63537;DHT22;49686;51.880;5.632;2022-12-18T07:49:38;-7.60;99.90
63537;DHT22;49686;51.880;5.632;2022-12-18T07:52:06;-7.50;99.90
63537;DHT22;49686;51.880;5.632;2022-12-18T07:54:34;-7.60;99.90
63537;DHT22;49686;51.880;5.632;2022-12-18T07:57:01;-7.50;99.90
63537;DHT22;49686;51.880;5.632;2022-12-18T07:59:47;-7.40;99.90
63537;DHT22;49686;51.880;5.632;2022-12-18T08:02:13;-7.20;99.90
63537;DHT22;49686;51.880;5.632;2022-12-18T08:04:40;-7.10;99.90
63537;DHT22;49686;51.880;5.632;2022-12-18T08:07:07;-7.00;99.90
63537;DHT22;49686;51.880;5.632;2022-12-18T08:09:35;-6.90;99.90
63537;DHT22;49686;51.880;5.632;2022-12-18T08:12:05;-6.80;99.90
63537;DHT22;49686;51.880;5.632;2022-12-18T08:14:32;-6.70;99.90
63537;DHT22;49686;51.880;5.632;2022-12-18T08:16:59;-6.70;99.90
63537;DHT22;49686;51.880;5.632;2022-12-18T08:19:26;-6.50;99.90
63537;DHT22;49686;51.880;5.632;2022-12-18T08:21:53;-6.50;99.90
63537;DHT22;49686;51.880;5.632;2022-12-18T08:24:19;-6.40;99.90
63537;DHT22;49686;51.880;5.632;2022-12-18T08:26:48;-6.30;99.90
63537;DHT22;49686;51.880;5.632;2022-12-18T08:29:35;-6.20;99.90
63537;DHT22;49686;51.880;5.632;2022-12-18T08:32:01;-6.10;99.90
63537;DHT22;49686;51.880;5.632;2022-12-18T08:34:31;-6.10;99.90
63537;DHT22;49686;51.880;5.632;2022-12-18T08:37:01;-6.10;99.90
63537;DHT22;49686;51.880;5.632;2022-12-18T08:39:27;-6.10;99.90
63537;DHT22;49686;51.880;5.632;2022-12-18T08:41:58;-6.00;99.90
63537;DHT22;49686;51.880;5.632;2022-12-18T08:44:25;-5.90;99.90
63537;DHT22;49686;51.880;5.632;2022-12-18T08:46:52;-5.90;99.90
63537;DHT22;49686;51.880;5.632;2022-12-18T08:49:18;-5.90;99.90
63537;DHT22;49686;51.880;5.632;2022-12-18T08:51:47;-5.90;99.90
63537;DHT22;49686;51.880;5.632;2022-12-18T08:54:14;-5.80;99.90
63537;DHT22;49686;51.880;5.632;2022-12-18T08:56:41;-5.70;99.90
63537;DHT22;49686;51.880;5.632;2022-12-18T08:59:09;-5.70;99.90
63537;DHT22;49686;51.880;5.632;2022-12-18T09:01:45;-5.50;99.90
63537;DHT22;49686;51.880;5.632;2022-12-18T09:04:13;-5.40;99.90
63537;DHT22;49686;51.880;5.632;2022-12-18T09:06:40;-5.30;99.90
63537;DHT22;49686;51.880;5.632;2022-12-18T09:09:07;-5.30;99.90
63537;DHT22;49686;51.880;5.632;2022-12-18T09:11:34;-5.20;99.90
63537;DHT22;49686;51.880;5.632;2022-12-18T09:14:01;-5.20;99.90
63537;DHT22;49686;51.880;5.632;2022-12-18T09:16:32;-5.20;99.90
63537;DHT22;49686;51.880;5.632;2022-12-18T09:19:01;-5.10;99.90
63537;DHT22;49686;51.880;5.632;2022-12-18T09:21:32;-5.00;99.90
63537;DHT22;49686;51.880;5.632;2022-12-18T09:24:03;-5.00;99.90
63537;DHT22;49686;51.880;5.632;2022-12-18T09:26:35;-5.00;99.90
63537;DHT22;49686;51.880;5.632;2022-12-18T09:29:02;-4.90;99.90
63537;DHT22;49686;51.880;5.632;2022-12-18T09:31:30;-4.90;99.90
63537;DHT22;49686;51.880;5.632;2022-12-18T09:33:57;-4.90;99.90
63537;DHT22;49686;51.880;5.632;2022-12-18T09:36:24;-4.80;99.90
63537;DHT22;49686;51.880;5.632;2022-12-18T09:38:51;-4.80;99.90
63537;DHT22;49686;51.880;5.632;2022-12-18T09:41:37;-4.70;99.90
63537;DHT22;49686;51.880;5.632;2022-12-18T09:44:13;-4.60;99.90
63537;DHT22;49686;51.880;5.632;2022-12-18T09:46:47;-4.60;99.90
63537;DHT22;49686;51.880;5.632;2022-12-18T09:49:17;-4.50;99.90
63537;DHT22;49686;51.880;5.632;2022-12-18T09:51:47;-4.50;99.90
63537;DHT22;49686;51.880;5.632;2022-12-18T09:54:20;-4.50;99.90
63537;DHT22;49686;51.880;5.632;2022-12-18T09:56:49;-4.50;99.90
63537;DHT22;49686;51.880;5.632;2022-12-18T09:59:21;-4.40;99.90
63537;DHT22;49686;51.880;5.632;2022-12-18T10:01:51;-4.40;99.90
63537;DHT22;49686;51.880;5.632;2022-12-18T10:04:18;-4.30;99.90
63537;DHT22;49686;51.880;5.632;2022-12-18T10:06:51;-4.30;99.90
63537;DHT22;49686;51.880;5.632;2022-12-18T10:09:26;-4.30;99.90
63537;DHT22;49686;51.880;5.632;2022-12-18T10:11:59;-4.20;99.90
63537;DHT22;49686;51.880;5.632;2022-12-18T10:14:34;-4.10;99.90
63537;DHT22;49686;51.880;5.632;2022-12-18T10:17:11;-4.10;99.90
63537;DHT22;49686;51.880;5.632;2022-12-18T10:19:42;-4.00;99.90
63537;DHT22;49686;51.880;5.632;2022-12-18T10:22:15;-4.00;99.90
63537;DHT22;49686;51.880;5.632;2022-12-18T10:24:48;-3.90;99.90
63537;DHT22;49686;51.880;5.632;2022-12-18T10:27:23;-3.90;99.90
63537;DHT22;49686;51.880;5.632;2022-12-18T10:29:50;-3.80;99.90
63537;DHT22;49686;51.880;5.632;2022-12-18T10:32:20;-3.80;99.90
63537;DHT22;49686;51.880;5.632;2022-12-18T10:34:57;-3.80;99.90
63537;DHT22;49686;51.880;5.632;2022-12-18T10:37:29;-3.70;99.90
63537;DHT22;49686;51.880;5.632;2022-12-18T10:40:10;-3.70;99.90
63537;DHT22;49686;51.880;5.632;2022-12-18T10:42:50;-3.70;99.90
63537;DHT22;49686;51.880;5.632;2022-12-18T10:45:29;-3.70;99.90
63537;DHT22;49686;51.880;5.632;2022-12-18T10:48:00;-3.60;99.90
63537;DHT22;49686;51.880;5.632;2022-12-18T10:50:34;-3.60;99.90
63537;DHT22;49686;51.880;5.632;2022-12-18T10:53:24;-3.50;99.90
63537;DHT22;49686;51.880;5.632;2022-12-18T10:55:53;-3.50;99.90
63537;DHT22;49686;51.880;5.632;2022-12-18T10:58:23;-3.40;99.90
63537;DHT22;49686;51.880;5.632;2022-12-18T11:01:09;-3.40;99.90
63537;DHT22;49686;51.880;5.632;2022-12-18T11:03:40;-3.40;99.90
63537;DHT22;49686;51.880;5.632;2022-12-18T11:06:09;-3.40;99.90
63537;DHT22;49686;51.880;5.632;2022-12-18T11:08:37;-3.30;99.90
63537;DHT22;49686;51.880;5.632;2022-12-18T11:11:15;-3.30;99.90
63537;DHT22;49686;51.880;5.632;2022-12-18T11:13:53;-3.30;99.90
63537;DHT22;49686;51.880;5.632;2022-12-18T11:16:23;-3.30;99.90
63537;DHT22;49686;51.880;5.632;2022-12-18T11:18:51;-3.20;99.90
63537;DHT22;49686;51.880;5.632;2022-12-18T11:21:18;-3.20;99.90
63537;DHT22;49686;51.880;5.632;2022-12-18T11:23:49;-3.20;99.90
63537;DHT22;49686;51.880;5.632;2022-12-18T11:26:16;-3.10;99.90
63537;DHT22;49686;51.880;5.632;2022-12-18T11:28:47;-3.10;99.90
63537;DHT22;49686;51.880;5.632;2022-12-18T11:31:21;-3.00;99.90
63537;DHT22;49686;51.880;5.632;2022-12-18T11:34:07;-3.00;99.90
63537;DHT22;49686;51.880;5.632;2022-12-18T11:36:55;-3.00;99.90
63537;DHT22;49686;51.880;5.632;2022-12-18T11:39:24;-2.90;99.90
63537;DHT22;49686;51.880;5.632;2022-12-18T11:42:01;-2.80;99.90
63537;DHT22;49686;51.880;5.632;2022-12-18T11:44:37;-2.80;99.90
63537;DHT22;49686;51.880;5.632;2022-12-18T11:47:11;-2.80;99.90
63537;DHT22;49686;51.880;5.632;2022-12-18T11:49:42;-2.70;99.90
63537;DHT22;49686;51.880;5.632;2022-12-18T11:52:16;-2.70;99.90
63537;DHT22;49686;51.880;5.632;2022-12-18T11:54:46;-2.70;99.90
63537;DHT22;49686;51.880;5.632;2022-12-18T11:57:19;-2.60;99.90
63537;DHT22;49686;51.880;5.632;2022-12-18T11:59:54;-2.60;99.90
63537;DHT22;49686;51.880;5.632;2022-12-18T12:02:38;-2.60;99.90
63537;DHT22;49686;51.880;5.632;2022-12-18T12:05:31;-2.60;99.90
63537;DHT22;49686;51.880;5.632;2022-12-18T12:08:12;-2.60;99.90
63537;DHT22;49686;51.880;5.632;2022-12-18T12:10:51;-2.60;99.90
63537;DHT22;49686;51.880;5.632;2022-12-18T12:13:32;-2.60;99.90
63537;DHT22;49686;51.880;5.632;2022-12-18T12:16:10;-2.50;99.90
63537;DHT22;49686;51.880;5.632;2022-12-18T12:18:54;-2.50;99.90
63537;DHT22;49686;51.880;5.632;2022-12-18T12:21:28;-2.50;99.90
63537;DHT22;49686;51.880;5.632;2022-12-18T12:24:06;-2.50;99.90
63537;DHT22;49686;51.880;5.632;2022-12-18T12:26:43;-2.40;99.90
63537;DHT22;49686;51.880;5.632;2022-12-18T12:29:26;-2.40;99.90
63537;DHT22;49686;51.880;5.632;2022-12-18T12:32:17;-2.40;99.90
63537;DHT22;49686;51.880;5.632;2022-12-18T12:34:55;-2.40;99.90
63537;DHT22;49686;51.880;5.632;2022-12-18T12:37:41;-2.40;99.90
63537;DHT22;49686;51.880;5.632;2022-12-18T12:40:17;-2.40;99.90
63537;DHT22;49686;51.880;5.632;2022-12-18T12:43:14;-2.40;99.90
63537;DHT22;49686;51.880;5.632;2022-12-18T12:45:50;-2.40;99.90
63537;DHT22;49686;51.880;5.632;2022-12-18T12:48:29;-2.40;99.90
63537;DHT22;49686;51.880;5.632;2022-12-18T12:51:00;-2.40;99.90
63537;DHT22;49686;51.880;5.632;2022-12-18T12:53:33;-2.40;99.90
63537;DHT22;49686;51.880;5.632;2022-12-18T12:56:02;-2.30;99.90
63537;DHT22;49686;51.880;5.632;2022-12-18T12:58:36;-2.30;99.90
63537;DHT22;49686;51.880;5.632;2022-12-18T13:01:20;-2.30;99.90
63537;DHT22;49686;51.880;5.632;2022-12-18T13:03:58;-2.30;99.90
63537;DHT22;49686;51.880;5.632;2022-12-18T13:06:35;-2.30;99.90
63537;DHT22;49686;51.880;5.632;2022-12-18T13:09:11;-2.30;99.90
63537;DHT22;49686;51.880;5.632;2022-12-18T13:11:39;-2.30;99.90
63537;DHT22;49686;51.880;5.632;2022-12-18T13:14:12;-2.30;99.90
63537;DHT22;49686;51.880;5.632;2022-12-18T13:16:46;-2.30;99.90
63537;DHT22;49686;51.880;5.632;2022-12-18T13:19:23;-2.30;99.90
63537;DHT22;49686;51.880;5.632;2022-12-18T13:21:54;-2.30;99.90
63537;DHT22;49686;51.880;5.632;2022-12-18T13:24:26;-2.20;99.90
63537;DHT22;49686;51.880;5.632;2022-12-18T13:26:54;-2.20;99.90
63537;DHT22;49686;51.880;5.632;2022-12-18T13:29:42;-2.20;99.90
63537;DHT22;49686;51.880;5.632;2022-12-18T13:32:23;-2.30;99.90
63537;DHT22;49686;51.880;5.632;2022-12-18T13:37:53;-2.30;99.90
63537;DHT22;49686;51.880;5.632;2022-12-18T13:40:54;-2.30;99.90
63537;DHT22;49686;51.880;5.632;2022-12-18T13:43:30;-2.20;99.90
63537;DHT22;49686;51.880;5.632;2022-12-18T13:46:19;-2.20;99.90
63537;DHT22;49686;51.880;5.632;2022-12-18T13:48:55;-2.20;99.90
63537;DHT22;49686;51.880;5.632;2022-12-18T13:51:23;-2.20;99.90
63537;DHT22;49686;51.880;5.632;2022-12-18T13:53:52;-2.30;99.90
63537;DHT22;49686;51.880;5.632;2022-12-18T13:56:24;-2.20;99.90
63537;DHT22;49686;51.880;5.632;2022-12-18T13:59:16;-2.20;99.90
63537;DHT22;49686;51.880;5.632;2022-12-18T14:01:46;-2.20;99.90
63537;DHT22;49686;51.880;5.632;2022-12-18T14:04:20;-2.20;99.90
63537;DHT22;49686;51.880;5.632;2022-12-18T14:06:51;-2.20;99.90
63537;DHT22;49686;51.880;5.632;2022-12-18T14:09:23;-2.20;99.90
63537;DHT22;49686;51.880;5.632;2022-12-18T14:11:53;-2.20;99.90
63537;DHT22;49686;51.880;5.632;2022-12-18T14:14:23;-2.20;99.90
63537;DHT22;49686;51.880;5.632;2022-12-18T14:16:59;-2.20;99.90
63537;DHT22;49686;51.880;5.632;2022-12-18T14:19:28;-2.20;99.90
63537;DHT22;49686;51.880;5.632;2022-12-18T14:21:55;-2.20;99.90
63537;DHT22;49686;51.880;5.632;2022-12-18T14:24:22;-2.20;99.90
63537;DHT22;49686;51.880;5.632;2022-12-18T14:26:54;-2.20;99.90
63537;DHT22;49686;51.880;5.632;2022-12-18T14:29:43;-2.20;99.90
63537;DHT22;49686;51.880;5.632;2022-12-18T14:32:11;-2.20;99.90
63537;DHT22;49686;51.880;5.632;2022-12-18T14:34:45;-2.20;99.90
63537;DHT22;49686;51.880;5.632;2022-12-18T14:37:17;-2.20;99.90
63537;DHT22;49686;51.880;5.632;2022-12-18T14:39:58;-2.20;99.90
63537;DHT22;49686;51.880;5.632;2022-12-18T14:42:27;-2.20;99.90
63537;DHT22;49686;51.880;5.632;2022-12-18T14:45:32;-2.20;99.90
63537;DHT22;49686;51.880;5.632;2022-12-18T14:48:16;-2.20;99.90
63537;DHT22;49686;51.880;5.632;2022-12-18T14:51:01;-2.10;99.90
63537;DHT22;49686;51.880;5.632;2022-12-18T14:53:36;-2.20;99.90
63537;DHT22;49686;51.880;5.632;2022-12-18T14:56:14;-2.20;99.90
63537;DHT22;49686;51.880;5.632;2022-12-18T14:58:48;-2.20;99.90
63537;DHT22;49686;51.880;5.632;2022-12-18T15:01:23;-2.20;99.90
63537;DHT22;49686;51.880;5.632;2022-12-18T15:04:00;-2.20;99.90
63537;DHT22;49686;51.880;5.632;2022-12-18T15:06:30;-2.20;99.90
63537;DHT22;49686;51.880;5.632;2022-12-18T15:08:59;-2.20;99.90
63537;DHT22;49686;51.880;5.632;2022-12-18T15:11:42;-2.20;99.90
63537;DHT22;49686;51.880;5.632;2022-12-18T15:14:31;-2.20;99.90
63537;DHT22;49686;51.880;5.632;2022-12-18T15:16:59;-2.20;99.90
63537;DHT22;49686;51.880;5.632;2022-12-18T15:19:35;-2.30;99.90
63537;DHT22;49686;51.880;5.632;2022-12-18T15:22:11;-2.20;99.90
63537;DHT22;49686;51.880;5.632;2022-12-18T15:24:42;-2.30;99.90
63537;DHT22;49686;51.880;5.632;2022-12-18T15:27:21;-2.30;99.90
63537;DHT22;49686;51.880;5.632;2022-12-18T15:30:20;-2.30;99.90
63537;DHT22;49686;51.880;5.632;2022-12-18T15:32:50;-2.30;99.90
63537;DHT22;49686;51.880;5.632;2022-12-18T15:35:19;-2.20;99.90
63537;DHT22;49686;51.880;5.632;2022-12-18T15:37:52;-2.30;99.90
63537;DHT22;49686;51.880;5.632;2022-12-18T15:40:21;-2.30;99.90
63537;DHT22;49686;51.880;5.632;2022-12-18T15:42:48;-2.30;99.90
63537;DHT22;49686;51.880;5.632;2022-12-18T15:45:19;-2.30;99.90
63537;DHT22;49686;51.880;5.632;2022-12-18T15:47:47;-2.30;99.90
63537;DHT22;49686;51.880;5.632;2022-12-18T15:50:17;-2.30;99.90
63537;DHT22;49686;51.880;5.632;2022-12-18T15:52:45;-2.30;99.90
63537;DHT22;49686;51.880;5.632;2022-12-18T15:55:13;-2.30;99.90
63537;DHT22;49686;51.880;5.632;2022-12-18T15:57:41;-2.30;99.90
63537;DHT22;49686;51.880;5.632;2022-12-18T16:00:12;-2.30;99.90